^^
Saratoga-Weather Station Historical Data
Daily Summary for January 7, 2021 Units:  English    Metric   Both
Daily Weekly Monthly Yearly Custom
  High: Low: Average:
Temperature: 47.5 °F 39.4 °F 43.7 °F
Dew Point: 46.4 °F 37 °F 41.7 °F
Humidity: 96% 87% 93%
Wind Speed: 10.1mph 0mph 2.4mph
Wind Gust: 14mph - -
Wind- - West
Pressure: 30.3 in 30.1 in -
Precipitation: 0.05 in    
Historical Graphs
 
 
Tabular Data for January 7, 2021
Time Temperature Dew Point Pressure Wind Wind Speed Wind Gust Humidity Rainfall Rate (Hourly) solar
00:01 40.1 °F 37.8 °F 30.3 in Calm   1 mph 91% 0 in 0 W/m2
00:06 40.1 °F 37.8 °F 30.3 in Calm   5 mph 91% 0 in 0 W/m2
00:11 40.1 °F 37.8 °F 30.3 in West 0.9 mph 4 mph 91% 0 in 0 W/m2
00:16 40.1 °F 37.8 °F 30.3 in NNW 2 mph 3 mph 91% 0 in 0 W/m2
00:21 40.1 °F 37.8 °F 30.3 in Calm   4 mph 91% 0 in 0 W/m2
00:26 40.1 °F 37.8 °F 30.3 in Calm   1 mph 91% 0 in 0 W/m2
00:31 39.9 °F 37.6 °F 30.3 in Calm   2 mph 91% 0 in 0 W/m2
00:36 39.9 °F 37.6 °F 30.3 in Calm     91% 0 in 0 W/m2
00:41 39.9 °F 37.6 °F 30.3 in Calm   1 mph 91% 0 in 0 W/m2
00:46 39.9 °F 37.6 °F 30.3 in North 0.9 mph 2 mph 91% 0 in 0 W/m2
00:51 39.9 °F 37.6 °F 30.3 in Calm   2 mph 91% 0 in 0 W/m2
00:56 39.7 °F 37.4 °F 30.3 in Calm   2 mph 91% 0 in 0 W/m2
01:01 39.7 °F 37.4 °F 30.3 in South 0.9 mph 2 mph 91% 0 in 0 W/m2
01:06 39.6 °F 37.2 °F 30.3 in Calm   2 mph 91% 0 in 0 W/m2
01:11 39.6 °F 37.2 °F 30.3 in North 0.9 mph 2 mph 91% 0 in 0 W/m2
01:16 39.4 °F 37 °F 30.2 in SW 5 mph 5 mph 91% 0 in 0 W/m2
01:21 39.6 °F 37.4 °F 30.2 in Calm   2 mph 92% 0 in 0 W/m2
01:26 39.6 °F 37.4 °F 30.3 in Calm   2 mph 92% 0 in 0 W/m2
01:31 39.6 °F 37.4 °F 30.3 in Calm   2 mph 92% 0 in 0 W/m2
01:36 39.7 °F 37.6 °F 30.2 in NW 4 mph 5 mph 92% 0 in 0 W/m2
01:41 39.9 °F 37.8 °F 30.2 in West 2.9 mph 3 mph 92% 0 in 0 W/m2
01:46 39.9 °F 37.8 °F 30.2 in NW 2.9 mph 5 mph 92% 0 in 0 W/m2
01:51 40.1 °F 37.9 °F 30.2 in WNW 0.9 mph 2 mph 92% 0 in 0 W/m2
01:56 40.1 °F 37.9 °F 30.2 in West 6 mph 6 mph 92% 0 in 0 W/m2
02:01 40.1 °F 37.9 °F 30.2 in West 2.9 mph 3 mph 92% 0 in 0 W/m2
02:06 40.3 °F 38.1 °F 30.2 in NW 2 mph 4 mph 92% 0 in 0 W/m2
02:11 40.5 °F 38.3 °F 30.2 in NW 2 mph 2 mph 92% 0 in 0 W/m2
02:16 40.5 °F 38.1 °F 30.2 in NW 2.9 mph 3 mph 91% 0 in 0 W/m2
02:21 40.5 °F 38.1 °F 30.2 in Calm   2 mph 91% 0 in 0 W/m2
02:26 40.5 °F 38.3 °F 30.2 in NW 2.9 mph 7 mph 92% 0 in 0 W/m2
02:31 40.6 °F 38.5 °F 30.2 in West 0.9 mph 5 mph 92% 0 in 0 W/m2
02:36 40.6 °F 38.5 °F 30.2 in WNW 2 mph 3 mph 92% 0 in 0 W/m2
02:41 40.6 °F 38.5 °F 30.2 in North 0.9 mph 2 mph 92% 0 in 0 W/m2
02:46 40.8 °F 38.5 °F 30.2 in WNW 4 mph 6 mph 91% 0 in 0 W/m2
02:51 40.8 °F 38.5 °F 30.2 in WNW 2.9 mph 4 mph 91% 0 in 0 W/m2
02:56 40.8 °F 38.5 °F 30.2 in WNW 2 mph 5 mph 91% 0 in 0 W/m2
03:01 40.8 °F 38.5 °F 30.2 in West 2 mph 2 mph 91% 0 in 0 W/m2
03:06 40.8 °F 38.5 °F 30.2 in NNW 2 mph 3 mph 91% 0 in 0 W/m2
03:11 40.6 °F 38.3 °F 30.2 in NNW 2.9 mph 4 mph 91% 0 in 0 W/m2
03:16 40.6 °F 38.3 °F 30.2 in WNW 2.9 mph 3 mph 91% 0 in 0 W/m2
03:21 40.6 °F 38.3 °F 30.2 in Calm   1 mph 91% 0 in 0 W/m2
03:26 40.5 °F 38.1 °F 30.2 in NE 2 mph 2 mph 91% 0 in 0 W/m2
03:31 40.5 °F 38.3 °F 30.2 in NW 0.9 mph 3 mph 92% 0 in 0 W/m2
03:36 40.5 °F 38.1 °F 30.2 in NNW 2 mph 3 mph 91% 0 in 0 W/m2
03:41 40.5 °F 38.3 °F 30.2 in Calm   1 mph 92% 0 in 0 W/m2
03:46 40.5 °F 38.3 °F 30.2 in Calm   1 mph 92% 0 in 0 W/m2
03:51 40.5 °F 38.3 °F 30.2 in Calm   1 mph 92% 0 in 0 W/m2
03:56 40.5 °F 38.3 °F 30.2 in North 2 mph 2 mph 92% 0 in 0 W/m2
04:01 40.5 °F 38.3 °F 30.2 in NW 2 mph 2 mph 92% 0 in 0 W/m2
04:06 40.6 °F 38.5 °F 30.2 in NE 0.9 mph 3 mph 92% 0 in 0 W/m2
04:11 40.6 °F 38.5 °F 30.2 in Calm   3 mph 92% 0 in 0 W/m2
04:16 40.6 °F 38.5 °F 30.2 in Calm     92% 0 in 0 W/m2
04:21 40.6 °F 38.5 °F 30.2 in Calm   2 mph 92% 0 in 0 W/m2
04:26 40.8 °F 38.7 °F 30.2 in Calm   1 mph 92% 0 in 0 W/m2
04:31 40.8 °F 38.7 °F 30.2 in Calm   1 mph 92% 0 in 0 W/m2
04:36 40.6 °F 38.5 °F 30.2 in NE 0.9 mph 3 mph 92% 0 in 0 W/m2
04:41 40.6 °F 38.5 °F 30.2 in SW 0.9 mph 2 mph 92% 0 in 0 W/m2
04:46 40.8 °F 38.7 °F 30.2 in West 0.9 mph 3 mph 92% 0 in 0 W/m2
04:51 40.8 °F 38.7 °F 30.2 in WNW 2 mph 2 mph 92% 0 in 0 W/m2
04:56 40.8 °F 38.7 °F 30.2 in Calm   1 mph 92% 0 in 0 W/m2
05:01 40.8 °F 38.7 °F 30.2 in East 2 mph 3 mph 92% 0 in 0 W/m2
05:06 40.8 °F 38.7 °F 30.2 in Calm   3 mph 92% 0 in 0 W/m2
05:11 41 °F 38.8 °F 30.2 in West 4 mph 4 mph 92% 0 in 0 W/m2
05:16 41 °F 38.8 °F 30.2 in ENE 2 mph 4 mph 92% 0 in 0 W/m2
05:21 41.2 °F 39 °F 30.2 in West 0.9 mph 5 mph 92% 0 in 0 W/m2
05:26 41.2 °F 39 °F 30.2 in NNW 2.9 mph 6 mph 92% 0 in 0 W/m2
05:31 41.4 °F 39.2 °F 30.2 in Calm   4 mph 92% 0 in 0 W/m2
05:36 41.4 °F 39.2 °F 30.2 in ENE 0.9 mph 6 mph 92% 0 in 0 W/m2
05:41 41.4 °F 39.2 °F 30.2 in Calm   5 mph 92% 0 in 0 W/m2
05:46 41.5 °F 39.4 °F 30.2 in East 0.9 mph 4 mph 92% 0 in 0 W/m2
05:52 41.5 °F 39.4 °F 30.2 in WNW 2 mph 9 mph 92% 0 in 0 W/m2
05:57 41.5 °F 39.4 °F 30.2 in Calm   2 mph 92% 0 in 0 W/m2
06:02 41.5 °F 39.4 °F 30.2 in NW 0.9 mph 9 mph 92% 0 in 0 W/m2
06:07 41.7 °F 39.6 °F 30.2 in NE 2 mph 2 mph 92% 0 in 0 W/m2
06:12 41.7 °F 39.6 °F 30.2 in SW 4 mph 7 mph 92% 0 in 0 W/m2
06:17 41.7 °F 39.6 °F 30.2 in SE 0.9 mph 2 mph 92% 0 in 0 W/m2
06:22 41.7 °F 39.6 °F 30.2 in North 2 mph 3 mph 92% 0 in 0 W/m2
06:27 41.7 °F 39.6 °F 30.2 in SW 2 mph 13 mph 92% 0 in 0 W/m2
06:32 41.7 °F 39.6 °F 30.2 in NNW 2.9 mph 3 mph 92% 0 in 0 W/m2
06:37 41.7 °F 39.6 °F 30.2 in WNW 6.9 mph 13 mph 92% 0 in 0 W/m2
06:42 41.9 °F 39.7 °F 30.2 in ENE 6 mph 7 mph 92% 0 in 0 W/m2
06:47 41.9 °F 39.7 °F 30.1 in WSW 0.9 mph 2 mph 92% 0 in 0 W/m2
06:52 41.9 °F 40.1 °F 30.2 in NE 2 mph 5 mph 93% 0 in 0 W/m2
06:57 41.9 °F 40.1 °F 30.1 in WNW 2.9 mph 5 mph 93% 0 in 0 W/m2
07:02 42.1 °F 40.3 °F 30.1 in NW 10.1 mph 10 mph 93% 0 in 0 W/m2
07:07 42.1 °F 40.3 °F 30.1 in NNW 4 mph 5 mph 93% 0 in 0 W/m2
07:12 42.1 °F 40.3 °F 30.1 in NW 10 mph 10 mph 93% 0 in 0 W/m2
07:17 42.1 °F 40.3 °F 30.1 in WNW 2 mph 4 mph 93% 0 in 0 W/m2
07:22 42.1 °F 40.3 °F 30.1 in West 4 mph 9 mph 93% 0 in 0 W/m2
07:27 42.1 °F 40.3 °F 30.1 in NW 2.9 mph 4 mph 93% 0 in 0 W/m2
07:32 42.1 °F 40.3 °F 30.1 in West 4 mph 9 mph 93% 0 in 0 W/m2
07:37 42.1 °F 40.3 °F 30.1 in NNW 0.9 mph 2 mph 93% 0 in 0 W/m2
07:42 42.1 °F 40.3 °F 30.1 in West 0.9 mph 5 mph 93% 0 in 5 W/m2
07:47 42.1 °F 40.3 °F 30.1 in NNW 0.9 mph 5 mph 93% 0 in 7 W/m2
07:52 42.1 °F 40.5 °F 30.1 in NW 0.9 mph 3 mph 94% 0 in 11 W/m2
07:57 42.1 °F 40.5 °F 30.1 in NW 2 mph 4 mph 94% 0 in 14 W/m2
08:02 42.1 °F 40.5 °F 30.1 in NNE 4.9 mph 9 mph 94% 0 in 18 W/m2
08:07 42.1 °F 40.5 °F 30.1 in WNW 0.9 mph 3 mph 94% 0 in 19 W/m2
08:12 42.1 °F 40.5 °F 30.1 in NW 9 mph 9 mph 94% 0 in 18 W/m2
08:17 42.3 °F 40.6 °F 30.1 in SW 0.9 mph 4 mph 94% 0 in 16 W/m2
08:22 42.3 °F 40.6 °F 30.1 in NW 4.9 mph 7 mph 94% 0 in 21 W/m2
08:27 42.3 °F 40.6 °F 30.1 in NW 0.9 mph 6 mph 94% 0 in 21 W/m2
08:32 42.3 °F 40.6 °F 30.1 in NW 0.9 mph 2 mph 94% 0 in 23 W/m2
08:37 42.4 °F 40.8 °F 30.1 in NW 0.9 mph 5 mph 94% 0 in 19 W/m2
08:42 42.4 °F 41.2 °F 30.1 in NNW 0.9 mph 3 mph 95% 0 in 18 W/m2
08:47 42.4 °F 41.2 °F 30.1 in Calm   4 mph 95% 0.01 in 21 W/m2
08:52 42.4 °F 41.2 °F 30.1 in NNW 0.9 mph 4 mph 95% 0.01 in 14 W/m2
08:57 42.4 °F 41.2 °F 30.1 in Calm   3 mph 95% 0.01 in 21 W/m2
09:02 42.4 °F 41.2 °F 30.1 in NE 2 mph 3 mph 95% 0.01 in 19 W/m2
09:07 42.4 °F 41.2 °F 30.1 in Calm   2 mph 95% 0.01 in 26 W/m2
09:12 42.4 °F 41.2 °F 30.1 in NE 0.9 mph 3 mph 95% 0.01 in 35 W/m2
09:17 42.6 °F 41.4 °F 30.1 in Calm   2 mph 95% 0.01 in 28 W/m2
09:22 42.6 °F 41.4 °F 30.1 in North 0.9 mph 3 mph 95% 0.01 in 25 W/m2
09:27 42.6 °F 41.4 °F 30.1 in North 2 mph 2 mph 95% 0.02 in 35 W/m2
09:32 42.8 °F 41.5 °F 30.1 in WNW 2.9 mph 3 mph 95% 0.02 in 51 W/m2
09:37 43 °F 41.7 °F 30.1 in Calm   1 mph 95% 0.02 in 72 W/m2
09:42 43 °F 41.7 °F 30.1 in Calm   1 mph 95% 0.02 in 84 W/m2
09:47 43.2 °F 41.9 °F 30.1 in NW 2 mph 2 mph 95% 0.02 in 47 W/m2
09:52 43.3 °F 42.1 °F 30.1 in NW 2.9 mph 4 mph 95% 0.02 in 39 W/m2
09:57 43.3 °F 42.3 °F 30.1 in NW 2.9 mph 4 mph 96% 0.02 in 63 W/m2
10:02 43.5 °F 42.4 °F 30.1 in NNW 2.9 mph 3 mph 96% 0.02 in 113 W/m2
10:07 43.9 °F 42.6 °F 30.1 in East 0.9 mph 2 mph 95% 0.03 in 125 W/m2
10:12 44.1 °F 42.8 °F 30.1 in West 0.9 mph 4 mph 95% 0.03 in 214 W/m2
10:17 44.2 °F 43.2 °F 30.1 in Calm   4 mph 96% 0.03 in 53 W/m2
10:22 44.2 °F 43 °F 30.1 in West 2 mph 9 mph 95% 0.03 in 93 W/m2
10:27 44.4 °F 43.2 °F 30.1 in Calm   3 mph 95% 0.02 in 58 W/m2
10:32 44.4 °F 43.2 °F 30.1 in WNW 0.9 mph 4 mph 95% 0.02 in 74 W/m2
10:37 44.4 °F 43.2 °F 30.1 in NW 2 mph 4 mph 95% 0.02 in 125 W/m2
10:42 44.6 °F 43.3 °F 30.1 in NNE 2.9 mph 10 mph 95% 0.02 in 130 W/m2
10:47 44.8 °F 43.5 °F 30.1 in WNW 0.9 mph 4 mph 95% 0.01 in 120 W/m2
10:52 45 °F 43.7 °F 30.1 in WNW 2 mph 10 mph 95% 0.01 in 97 W/m2
10:57 45 °F 43.7 °F 30.1 in NNW 2 mph 9 mph 95% 0.01 in 56 W/m2
11:02 45 °F 43.7 °F 30.1 in NW 2 mph 8 mph 95% 0.01 in 51 W/m2
11:07 44.8 °F 43.5 °F 30.1 in West 4 mph 10 mph 95% 0 in 47 W/m2
11:12 44.8 °F 43.5 °F 30.1 in NE 2.9 mph 4 mph 95% 0 in 53 W/m2
11:17 44.8 °F 43.5 °F 30.1 in Calm   9 mph 95% 0 in 54 W/m2
11:22 45 °F 43.7 °F 30.1 in NW 2 mph 7 mph 95% 0 in 49 W/m2
11:27 44.8 °F 43.5 °F 30.1 in NW 2 mph 7 mph 95% 0 in 58 W/m2
11:32 44.8 °F 43.5 °F 30.1 in North 2 mph 6 mph 95% 0 in 53 W/m2
11:37 45 °F 43.7 °F 30.1 in West 6 mph 8 mph 95% 0 in 69 W/m2
11:42 45 °F 43.7 °F 30.1 in WNW 2.9 mph 9 mph 95% 0 in 70 W/m2
11:47 45 °F 43.7 °F 30.1 in West 2.9 mph 8 mph 95% 0 in 70 W/m2
11:52 45 °F 43.7 °F 30.1 in NNW 4 mph 5 mph 95% 0 in 91 W/m2
11:57 45 °F 43.7 °F 30.1 in West 2.9 mph 5 mph 95% 0 in 88 W/m2
12:02 45 °F 43.7 °F 30.1 in WNW 2 mph 9 mph 95% 0 in 65 W/m2
12:07 45.1 °F 43.9 °F 30.1 in SSW 0.9 mph 2 mph 95% 0 in 49 W/m2
12:12 45.1 °F 43.9 °F 30.1 in WNW 6.9 mph 10 mph 95% 0.01 in 49 W/m2
12:17 45.1 °F 43.9 °F 30.1 in WNW 2.9 mph 4 mph 95% 0.01 in 42 W/m2
12:22 45.1 °F 43.9 °F 30.1 in West 2.9 mph 10 mph 95% 0.01 in 67 W/m2
12:27 45.3 °F 44.1 °F 30.1 in NNW 4 mph 6 mph 95% 0.01 in 67 W/m2
12:32 45.3 °F 44.1 °F 30.1 in West 4 mph 14 mph 95% 0.01 in 70 W/m2
12:37 45.3 °F 44.1 °F 30.1 in West 6 mph 12 mph 95% 0.01 in 70 W/m2
12:42 45.5 °F 44.2 °F 30.1 in North 2.9 mph 4 mph 95% 0.01 in 72 W/m2
12:47 45.5 °F 44.2 °F 30.1 in WNW 4 mph 5 mph 95% 0.01 in 77 W/m2
12:52 45.7 °F 44.4 °F 30.1 in Calm   10 mph 95% 0.01 in 63 W/m2
12:57 45.7 °F 44.4 °F 30.1 in West 2 mph 4 mph 95% 0.01 in 69 W/m2
13:02 45.9 °F 44.4 °F 30.1 in NNW 2 mph 5 mph 95% 0.01 in 91 W/m2
13:07 45.9 °F 44.4 °F 30.1 in West 0.9 mph 6 mph 95% 0.01 in 79 W/m2
13:12 45.9 °F 44.4 °F 30.1 in SW 4.9 mph 11 mph 95% 0 in 105 W/m2
13:17 45.9 °F 44.4 °F 30.1 in NW 0.9 mph 3 mph 95% 0 in 77 W/m2
13:22 46 °F 44.6 °F 30.1 in WNW 0.9 mph 6 mph 95% 0 in 81 W/m2
13:27 46 °F 44.6 °F 30.1 in West 2.9 mph 5 mph 95% 0 in 63 W/m2
13:32 46 °F 44.6 °F 30.1 in NW 2 mph 6 mph 95% 0 in 53 W/m2
13:37 46 °F 44.6 °F 30.1 in NW 4 mph 5 mph 95% 0 in 54 W/m2
13:42 46 °F 44.6 °F 30.1 in NW 2 mph 7 mph 95% 0 in 60 W/m2
13:47 46 °F 44.6 °F 30.1 in NW 2.9 mph 7 mph 95% 0 in 47 W/m2
13:52 46 °F 44.6 °F 30.1 in West 4 mph 6 mph 95% 0 in 46 W/m2
13:57 46 °F 44.6 °F 30.1 in West 2 mph 8 mph 95% 0 in 39 W/m2
14:02 46 °F 44.6 °F 30.1 in West 4 mph 5 mph 95% 0 in 40 W/m2
14:07 46 °F 44.6 °F 30.1 in WNW 4 mph 8 mph 95% 0 in 26 W/m2
14:12 46 °F 44.6 °F 30.1 in Calm   8 mph 95% 0 in 18 W/m2
14:17 46.2 °F 44.8 °F 30.1 in WSW 0.9 mph 2 mph 95% 0 in 16 W/m2
14:22 46.2 °F 44.8 °F 30.1 in NNW 2.9 mph 8 mph 95% 0 in 19 W/m2
14:27 46.2 °F 44.8 °F 30.1 in WNW 0.9 mph 2 mph 95% 0 in 19 W/m2
14:32 46.2 °F 44.8 °F 30.1 in WNW 0.9 mph 8 mph 95% 0 in 21 W/m2
14:38 46.2 °F 44.8 °F 30.1 in West 2 mph 5 mph 95% 0 in 16 W/m2
14:43 46.4 °F 45 °F 30.1 in West 4 mph 4 mph 95% 0 in 23 W/m2
14:48 46.4 °F 45 °F 30.1 in WSW 2.9 mph 3 mph 95% 0 in 30 W/m2
14:53 46.4 °F 45 °F 30.1 in Calm   1 mph 95% 0 in 33 W/m2
14:58 46.6 °F 45.1 °F 30.1 in WNW 2 mph 3 mph 95% 0 in 39 W/m2
15:03 46.6 °F 45.1 °F 30.1 in West 0.9 mph 3 mph 95% 0 in 47 W/m2
15:08 46.8 °F 45.3 °F 30.1 in Calm   4 mph 95% 0 in 39 W/m2
15:13 46.8 °F 45.3 °F 30.1 in WNW 2 mph 3 mph 95% 0 in 32 W/m2
15:18 46.8 °F 45.3 °F 30.1 in Calm   3 mph 95% 0 in 33 W/m2
15:23 46.8 °F 45.3 °F 30.1 in West 2 mph 4 mph 95% 0 in 26 W/m2
15:28 46.8 °F 45.3 °F 30.1 in West 2.9 mph 3 mph 95% 0 in 32 W/m2
15:33 46.9 °F 45.5 °F 30.1 in WNW 0.9 mph 4 mph 95% 0 in 26 W/m2
15:38 46.9 °F 45.5 °F 30.1 in Calm   2 mph 95% 0 in 14 W/m2
15:43 46.9 °F 45.5 °F 30.1 in NW 0.9 mph 4 mph 95% 0 in 9 W/m2
15:48 46.9 °F 45.5 °F 30.1 in WNW 4.9 mph 6 mph 95% 0 in 7 W/m2
15:53 46.9 °F 45.5 °F 30.1 in WNW 2 mph 2 mph 95% 0 in 9 W/m2
15:58 46.9 °F 45.5 °F 30.1 in WSW 0.9 mph 2 mph 95% 0 in 7 W/m2
16:03 46.9 °F 45.5 °F 30.1 in Calm   4 mph 95% 0 in 9 W/m2
16:08 46.9 °F 45.5 °F 30.1 in NW 0.9 mph 2 mph 95% 0 in 5 W/m2
16:13 46.9 °F 45.5 °F 30.1 in NNW 0.9 mph 4 mph 95% 0 in 14 W/m2
16:18 46.9 °F 45.5 °F 30.1 in WNW 4 mph 4 mph 95% 0 in 19 W/m2
16:23 46.9 °F 45.9 °F 30.1 in West 4 mph 7 mph 96% 0 in 26 W/m2
16:28 47.1 °F 46 °F 30.1 in West 2.9 mph 5 mph 96% 0 in 18 W/m2
16:33 47.1 °F 46 °F 30.1 in WNW 2.9 mph 7 mph 96% 0 in 14 W/m2
16:38 47.1 °F 46 °F 30.1 in SW 4.9 mph 8 mph 96% 0 in 12 W/m2
16:43 47.3 °F 46.2 °F 30.1 in SW 4 mph 6 mph 96% 0 in 11 W/m2
16:48 47.3 °F 46.2 °F 30.1 in West 2 mph 5 mph 96% 0 in 11 W/m2
16:53 47.5 °F 46.4 °F 30.1 in WNW 0.9 mph 3 mph 96% 0 in 7 W/m2
16:58 47.5 °F 46.4 °F 30.1 in West 6 mph 7 mph 96% 0 in 0 W/m2
17:03 47.5 °F 46 °F 30.1 in West 2.9 mph 6 mph 95% 0 in 0 W/m2
17:08 47.5 °F 46 °F 30.1 in West 2 mph 7 mph 95% 0 in 0 W/m2
17:13 47.5 °F 46 °F 30.1 in NW 4 mph 7 mph 95% 0 in 0 W/m2
17:18 47.5 °F 46 °F 30.1 in WSW 4.9 mph 5 mph 95% 0 in 0 W/m2
17:23 47.5 °F 46 °F 30.1 in West 2.9 mph 6 mph 95% 0 in 0 W/m2
17:28 47.5 °F 46 °F 30.1 in WSW 2.9 mph 6 mph 95% 0 in 0 W/m2
17:33 47.5 °F 46 °F 30.1 in WNW 2.9 mph 7 mph 95% 0 in 0 W/m2
17:38 47.5 °F 46 °F 30.1 in WSW 2 mph 4 mph 95% 0 in 0 W/m2
17:43 47.5 °F 46 °F 30.1 in SW 6 mph 8 mph 95% 0 in 0 W/m2
17:48 47.3 °F 45.9 °F 30.1 in West 2 mph 4 mph 95% 0 in 0 W/m2
17:53 47.1 °F 45.7 °F 30.1 in West 2.9 mph 7 mph 95% 0 in 0 W/m2
17:58 47.1 °F 45.7 °F 30.1 in West 2.9 mph 7 mph 95% 0 in 0 W/m2
18:03 47.1 °F 45.7 °F 30.1 in West 2.9 mph 8 mph 95% 0 in 0 W/m2
18:08 47.1 °F 45.7 °F 30.1 in West 2.9 mph 7 mph 95% 0 in 0 W/m2
18:13 47.1 °F 45.7 °F 30.1 in West 2.9 mph 8 mph 95% 0 in 0 W/m2
18:18 46.9 °F 45.5 °F 30.1 in WNW 6.9 mph 8 mph 95% 0 in 0 W/m2
18:23 46.9 °F 45.5 °F 30.1 in West 2 mph 7 mph 95% 0 in 0 W/m2
18:28 46.9 °F 45.3 °F 30.1 in WNW 2 mph 8 mph 94% 0 in 0 W/m2
18:33 46.8 °F 45.1 °F 30.1 in WSW 2.9 mph 9 mph 94% 0 in 0 W/m2
18:38 46.8 °F 44.8 °F 30.1 in WNW 4 mph 7 mph 93% 0 in 0 W/m2
18:43 46.8 °F 44.8 °F 30.1 in West 10.1 mph 11 mph 93% 0 in 0 W/m2
18:48 46.8 °F 44.6 °F 30.1 in WNW 4.9 mph 9 mph 92% 0 in 0 W/m2
18:53 46.6 °F 44.1 °F 30.1 in SW 4 mph 7 mph 91% 0 in 0 W/m2
18:58 46.2 °F 43.7 °F 30.1 in West 4 mph 6 mph 91% 0 in 0 W/m2
19:03 46.2 °F 43.7 °F 30.1 in West 2.9 mph 10 mph 91% 0 in 0 W/m2
19:08 46 °F 43.3 °F 30.1 in West 2.9 mph 8 mph 90% 0 in 0 W/m2
19:13 45.9 °F 43.3 °F 30.1 in WSW 4 mph 10 mph 91% 0 in 0 W/m2
19:18 45.9 °F 43.3 °F 30.1 in West 4 mph 10 mph 91% 0 in 0 W/m2
19:23 45.7 °F 43.2 °F 30.1 in WNW 4 mph 7 mph 91% 0 in 0 W/m2
19:28 45.5 °F 43 °F 30.1 in West 2.9 mph 10 mph 91% 0 in 0 W/m2
19:33 45.3 °F 42.8 °F 30.1 in West 4 mph 7 mph 91% 0 in 0 W/m2
19:38 45.1 °F 42.6 °F 30.1 in West 2.9 mph 9 mph 91% 0 in 0 W/m2
19:43 45 °F 42.4 °F 30.1 in West 4 mph 5 mph 91% 0 in 0 W/m2
19:48 45 °F 42.4 °F 30.1 in WNW 2.9 mph 7 mph 91% 0 in 0 W/m2
19:53 45 °F 42.4 °F 30.1 in WSW 4 mph 5 mph 91% 0 in 0 W/m2
19:58 44.8 °F 42.3 °F 30.1 in WNW 2 mph 4 mph 91% 0 in 0 W/m2
20:03 44.6 °F 42.1 °F 30.1 in WNW 2 mph 4 mph 91% 0 in 0 W/m2
20:08 44.4 °F 41.9 °F 30.1 in West 2 mph 5 mph 91% 0 in 0 W/m2
20:13 44.2 °F 41.7 °F 30.1 in WNW 2.9 mph 6 mph 91% 0 in 0 W/m2
20:18 44.2 °F 41.7 °F 30.1 in WSW 2.9 mph 6 mph 91% 0 in 0 W/m2
20:23 44.2 °F 41.7 °F 30.1 in West 2 mph 7 mph 91% 0 in 0 W/m2
20:28 44.2 °F 41.7 °F 30.1 in West 4 mph 7 mph 91% 0 in 0 W/m2
20:33 44.2 °F 41.7 °F 30.1 in West 2.9 mph 7 mph 91% 0 in 0 W/m2
20:38 44.2 °F 41.7 °F 30.1 in West 2.9 mph 7 mph 91% 0 in 0 W/m2
20:43 44.1 °F 41.5 °F 30.1 in West 4 mph 8 mph 91% 0 in 0 W/m2
20:48 44.1 °F 41.5 °F 30.1 in West 2.9 mph 6 mph 91% 0 in 0 W/m2
20:53 43.9 °F 41.4 °F 30.1 in WNW 4 mph 8 mph 91% 0 in 0 W/m2
20:58 44.1 °F 41.5 °F 30.1 in WNW 2.9 mph 6 mph 91% 0 in 0 W/m2
21:03 44.1 °F 41.5 °F 30.1 in West 4 mph 6 mph 91% 0 in 0 W/m2
21:08 44.2 °F 41.7 °F 30.1 in West 2.9 mph 8 mph 91% 0 in 0 W/m2
21:13 44.2 °F 41.5 °F 30.1 in WNW 2 mph 6 mph 90% 0 in 0 W/m2
21:18 44.2 °F 41.5 °F 30.1 in WNW 2 mph 8 mph 90% 0 in 0 W/m2
21:23 44.1 °F 41.4 °F 30.1 in NW 2.9 mph 3 mph 90% 0 in 0 W/m2
21:28 43.5 °F 40.8 °F 30.1 in WSW 4 mph 7 mph 90% 0 in 0 W/m2
21:33 43.5 °F 41 °F 30.2 in WNW 2.9 mph 6 mph 91% 0 in 0 W/m2
21:38 43.5 °F 41 °F 30.2 in West 2.9 mph 7 mph 91% 0 in 0 W/m2
21:43 43.7 °F 41.2 °F 30.2 in West 4 mph 7 mph 91% 0 in 0 W/m2
21:48 44.1 °F 41.5 °F 30.1 in West 6 mph 8 mph 91% 0 in 0 W/m2
21:54 44.4 °F 41.7 °F 30.1 in WNW 4 mph 6 mph 90% 0 in 0 W/m2
21:59 44.4 °F 41.4 °F 30.1 in West 4 mph 9 mph 89% 0 in 0 W/m2
22:04 44.4 °F 41.4 °F 30.1 in WNW 2.9 mph 6 mph 89% 0 in 0 W/m2
22:09 44.4 °F 41.4 °F 30.2 in WNW 2.9 mph 9 mph 89% 0 in 0 W/m2
22:14 44.1 °F 41 °F 30.2 in WNW 6 mph 7 mph 89% 0 in 0 W/m2
22:19 43.9 °F 41.2 °F 30.2 in West 6 mph 7 mph 90% 0 in 0 W/m2
22:24 44.2 °F 41.5 °F 30.2 in West 2.9 mph 9 mph 90% 0 in 0 W/m2
22:29 44.2 °F 41.2 °F 30.2 in West 6 mph 8 mph 89% 0 in 0 W/m2
22:34 44.4 °F 41.4 °F 30.2 in WNW 4.9 mph 11 mph 89% 0 in 0 W/m2
22:39 44.4 °F 41.2 °F 30.2 in WNW 2.9 mph 7 mph 88% 0 in 0 W/m2
22:44 44.1 °F 41 °F 30.2 in West 8.1 mph 8 mph 89% 0 in 0 W/m2
22:49 44.1 °F 41 °F 30.2 in WSW 2 mph 7 mph 89% 0 in 0 W/m2
22:54 44.1 °F 41 °F 30.2 in West 6 mph 7 mph 89% 0 in 0 W/m2
22:59 43.9 °F 40.8 °F 30.2 in WNW 4.9 mph 7 mph 89% 0 in 0 W/m2
23:04 43.7 °F 40.6 °F 30.2 in WNW 2.9 mph 6 mph 89% 0 in 0 W/m2
23:09 43.7 °F 40.6 °F 30.2 in WNW 4 mph 10 mph 89% 0 in 0 W/m2
23:14 43.9 °F 40.8 °F 30.2 in NNW 2.9 mph 6 mph 89% 0 in 0 W/m2
23:19 44.1 °F 40.8 °F 30.2 in WNW 4 mph 10 mph 88% 0 in 0 W/m2
23:24 44.2 °F 41 °F 30.2 in West 4 mph 8 mph 88% 0 in 0 W/m2
23:29 44.2 °F 41 °F 30.2 in West 8.1 mph 10 mph 88% 0 in 0 W/m2
23:34 44.1 °F 40.5 °F 30.2 in NW 2 mph 4 mph 87% 0 in 0 W/m2
23:39 43.5 °F 40.3 °F 30.2 in WNW 4 mph 7 mph 88% 0 in 0 W/m2
23:44 43.2 °F 39.9 °F 30.2 in Calm   3 mph 88% 0 in 0 W/m2
23:49 43 °F 39.9 °F 30.2 in West 2.9 mph 4 mph 89% 0 in 0 W/m2
23:54 42.8 °F 40.1 °F 30.2 in North 0.9 mph 2 mph 90% 0 in 0 W/m2
23:59 42.4 °F 39.4 °F 30.2 in ESE 2 mph 3 mph 89% 0 in 0 W/m2
Juneau County Weather
Compliments of Weather Underground - 4 mb